TimeEDT,TemperatureF,Dew PointF,Humidity,Sea Level PressureIn,VisibilityMPH,Wind Direction,Wind SpeedMPH,Gust SpeedMPH,PrecipitationIn,Events,Conditions,WindDirDegrees,DateUTC
12:00 AM,28.4,23.0,80,30.09,9.0,NW,23.0,29.9,N/A,,Overcast,320,2012-10-05 04:00:00
1:00 AM,28.4,24.8,86,30.09,9.0,NW,21.9,27.6,N/A,,Overcast,320,2012-10-05 05:00:00
1:05 AM,28.4,24.8,86,30.09,9.0,NW,20.7,-,N/A,Snow,Light Snow,320,2012-10-05 05:05:00
1:58 AM,26.6,24.8,93,30.10,9.0,NW,23.0,-,N/A,,Overcast,320,2012-10-05 05:58:00
2:00 AM,28.4,24.8,86,30.10,9.0,NW,24.2,-,N/A,,Overcast,320,2012-10-05 06:00:00
3:00 AM,26.6,23.0,86,30.10,9.0,NW,19.6,-,N/A,,Overcast,310,2012-10-05 07:00:00
4:00 AM,28.4,24.8,86,30.09,9.0,NNW,21.9,-,N/A,,Overcast,330,2012-10-05 08:00:00
5:00 AM,26.6,24.8,93,30.09,9.0,NW,18.4,-,N/A,,Overcast,310,2012-10-05 09:00:00
5:13 AM,26.6,26.6,100,30.09,5.0,NW,17.3,24.2,N/A,,Overcast,320,2012-10-05 09:13:00
5:15 AM,26.6,26.6,100,30.09,3.0,NW,16.1,-,N/A,,Overcast,320,2012-10-05 09:15:00
5:17 AM,26.6,26.6,100,30.09,2.2,NW,18.4,-,N/A,,Overcast,320,2012-10-05 09:17:00
5:18 AM,28.4,26.6,93,30.09,2.2,NW,19.6,-,N/A,Snow,Light Snow,320,2012-10-05 09:18:00
5:20 AM,28.4,26.6,93,30.09,2.2,NW,18.4,-,N/A,Snow,Light Snow,320,2012-10-05 09:20:00
5:21 AM,28.4,26.6,93,30.09,2.2,NW,17.3,-,N/A,Snow,Light Snow,320,2012-10-05 09:21:00
5:24 AM,28.4,26.6,93,30.09,3.0,NW,17.3,-,N/A,Snow,Light Snow,310,2012-10-05 09:24:00
5:27 AM,28.4,26.6,93,30.09,7.0,NW,15.0,21.9,N/A,Snow,Light Snow,310,2012-10-05 09:27:00
5:30 AM,26.6,26.6,100,30.09,9.0,NW,15.0,-,N/A,,Overcast,310,2012-10-05 09:30:00
5:46 AM,26.6,26.6,100,30.09,9.0,NW,21.9,-,N/A,,Overcast,310,2012-10-05 09:46:00
6:00 AM,26.6,24.8,93,30.09,9.0,NW,17.3,-,N/A,,Overcast,310,2012-10-05 10:00:00
6:03 AM,26.6,24.8,93,30.09,9.0,NW,16.1,23.0,N/A,,Overcast,310,2012-10-05 10:03:00
6:06 AM,26.6,24.8,93,30.09,9.0,NW,18.4,-,N/A,,Overcast,310,2012-10-05 10:06:00
6:19 AM,26.6,24.8,93,30.08,9.0,NW,17.3,-,N/A,,Overcast,310,2012-10-05 10:19:00
6:53 AM,26.6,24.8,93,30.08,9.0,NW,15.0,-,N/A,,Overcast,320,2012-10-05 10:53:00
7:00 AM,26.6,24.8,93,30.08,9.0,NW,13.8,-,N/A,,Overcast,320,2012-10-05 11:00:00
8:00 AM,28.4,24.8,86,30.07,15.0,NW,16.1,-,N/A,,Mostly Cloudy,320,2012-10-05 12:00:00
9:00 AM,26.6,24.8,93,30.06,15.0,NW,19.6,-,N/A,,Overcast,310,2012-10-05 13:00:00
10:00 AM,26.6,23.0,86,30.05,15.0,NW,11.5,-,N/A,,Overcast,320,2012-10-05 14:00:00
11:00 AM,26.6,23.0,86,30.04,15.0,NW,10.4,-,N/A,,Overcast,320,2012-10-05 15:00:00
12:00 PM,26.6,23.0,86,30.02,15.0,West,6.9,-,N/A,,Overcast,280,2012-10-05 16:00:00
1:00 PM,26.6,21.2,80,30.01,15.0,WSW,8.1,-,N/A,,Mostly Cloudy,240,2012-10-05 17:00:00
2:00 PM,24.8,21.2,86,29.99,15.0,SSW,10.4,-,N/A,,Mostly Cloudy,210,2012-10-05 18:00:00
3:00 PM,26.6,23.0,86,29.97,15.0,SSW,9.2,-,N/A,,Mostly Cloudy,200,2012-10-05 19:00:00
4:00 PM,26.6,23.0,86,29.95,15.0,South,11.5,-,N/A,,Mostly Cloudy,190,2012-10-05 20:00:00
5:00 PM,26.6,23.0,86,29.93,15.0,SSW,6.9,-,N/A,,Mostly Cloudy,200,2012-10-05 21:00:00
6:00 PM,28.4,23.0,80,29.91,15.0,South,9.2,-,N/A,,Mostly Cloudy,180,2012-10-05 22:00:00
6:30 PM,28.4,24.8,86,29.91,3.0,SSW,10.4,-,N/A,Snow,Light Snow,210,2012-10-05 22:30:00
7:00 PM,28.4,26.6,93,29.90,9.0,SSW,8.1,-,N/A,Snow,Light Snow,200,2012-10-05 23:00:00
8:00 PM,28.4,24.8,86,29.89,12.0,South,6.9,-,N/A,Snow,Light Snow,190,2012-10-06 00:00:00
8:06 PM,28.4,24.8,86,29.89,9.0,SSW,8.1,-,N/A,Snow,Light Snow,200,2012-10-06 00:06:00
9:00 PM,26.6,24.8,93,29.89,9.0,SW,8.1,-,N/A,Snow,Light Snow,230,2012-10-06 01:00:00
9:27 PM,26.6,24.8,93,29.88,9.0,SW,6.9,-,N/A,,Overcast,220,2012-10-06 01:27:00
10:00 PM,28.4,24.8,86,29.88,9.0,SW,6.9,-,N/A,,Overcast,230,2012-10-06 02:00:00
11:00 PM,28.4,24.8,86,29.87,9.0,SSW,4.6,-,N/A,,Overcast,200,2012-10-06 03:00:00